Lossiemouth, United Kingdom
Current Conditions -  °F | °C
As of 7:50 PM on Wednesday 28 Jan 2015 (Local Time) from EGQS Reporting Station
Few Clouds Few Clouds  
Wind Chill: -7°   Ceiling: Unl
Heat Index:   Visibility: 6mi
Dew Point: -2°   Wind: 22mph
Humidity: 87%   Direction: 250°WSW
Pressure: 28.94"   Gusts: NA
Location:  57.72°N, 3.28°W
Report Text: EGQS 281950Z 25019KT 9999 FEW016CB 00/M02 Q0980 BLU
Loading
Personal Weather Stations






























Interactive Weather Map New forecast layout! Learn more

10-Day Weather Forecast

Advertisements
Track Severe Weather on mobile